sensor_id;sensor_type;location;lat;lon;timestamp;pressure;altitude;pressure_sealevel;temperature;humidity
65190;BME280;51777;53.570;9.984;2023-10-09T00:01:49;101857.31;;;11.98;100.00
65190;BME280;51777;53.570;9.984;2023-10-09T00:04:15;101844.63;;;11.95;100.00
65190;BME280;51777;53.570;9.984;2023-10-09T00:06:43;101832.81;;;11.82;100.00
65190;BME280;51777;53.570;9.984;2023-10-09T00:09:10;101828.44;;;11.82;100.00
65190;BME280;51777;53.570;9.984;2023-10-09T00:11:55;101804.34;;;11.70;100.00
65190;BME280;51777;53.570;9.984;2023-10-09T00:14:26;101778.69;;;11.67;100.00
65190;BME280;51777;53.570;9.984;2023-10-09T00:16:56;101770.91;;;11.67;100.00
65190;BME280;51777;53.570;9.984;2023-10-09T00:19:28;101763.50;;;11.63;100.00
65190;BME280;51777;53.570;9.984;2023-10-09T00:21:58;101761.06;;;11.61;100.00
65190;BME280;51777;53.570;9.984;2023-10-09T00:24:31;101758.41;;;11.52;100.00
65190;BME280;51777;53.570;9.984;2023-10-09T00:27:02;101738.50;;;11.52;100.00
65190;BME280;51777;53.570;9.984;2023-10-09T00:29:45;101751.09;;;11.57;100.00
65190;BME280;51777;53.570;9.984;2023-10-09T00:32:15;101744.69;;;11.61;100.00
65190;BME280;51777;53.570;9.984;2023-10-09T00:35:01;101731.69;;;11.51;100.00
65190;BME280;51777;53.570;9.984;2023-10-09T00:37:52;101739.22;;;11.54;100.00
65190;BME280;51777;53.570;9.984;2023-10-09T00:40:21;101749.06;;;11.60;100.00
65190;BME280;51777;53.570;9.984;2023-10-09T00:42:53;101738.13;;;11.57;100.00
65190;BME280;51777;53.570;9.984;2023-10-09T00:45:21;101730.28;;;11.47;100.00
65190;BME280;51777;53.570;9.984;2023-10-09T00:47:53;101722.53;;;11.47;100.00
65190;BME280;51777;53.570;9.984;2023-10-09T00:50:23;101712.66;;;11.41;100.00
65190;BME280;51777;53.570;9.984;2023-10-09T00:52:52;101699.81;;;11.30;100.00
65190;BME280;51777;53.570;9.984;2023-10-09T00:55:27;101692.53;;;11.24;100.00
65190;BME280;51777;53.570;9.984;2023-10-09T00:58:05;101680.09;;;11.17;100.00
65190;BME280;51777;53.570;9.984;2023-10-09T01:00:37;101682.22;;;11.12;100.00
65190;BME280;51777;53.570;9.984;2023-10-09T01:03:09;101664.13;;;11.12;100.00
65190;BME280;51777;53.570;9.984;2023-10-09T01:05:56;101669.03;;;11.15;100.00
65190;BME280;51777;53.570;9.984;2023-10-09T01:08:31;101670.25;;;11.11;100.00
65190;BME280;51777;53.570;9.984;2023-10-09T01:11:15;101662.72;;;11.08;100.00
65190;BME280;51777;53.570;9.984;2023-10-09T01:13:45;101664.63;;;11.06;100.00
65190;BME280;51777;53.570;9.984;2023-10-09T01:16:13;101661.34;;;11.04;100.00
65190;BME280;51777;53.570;9.984;2023-10-09T01:18:46;101657.22;;;11.02;100.00
65190;BME280;51777;53.570;9.984;2023-10-09T01:21:15;101655.22;;;11.05;100.00
65190;BME280;51777;53.570;9.984;2023-10-09T01:23:43;101654.84;;;11.10;100.00
65190;BME280;51777;53.570;9.984;2023-10-09T01:26:36;101652.13;;;11.11;100.00
65190;BME280;51777;53.570;9.984;2023-10-09T01:29:12;101641.09;;;11.09;100.00
65190;BME280;51777;53.570;9.984;2023-10-09T01:31:49;101626.63;;;11.07;100.00
65190;BME280;51777;53.570;9.984;2023-10-09T01:34:23;101628.81;;;11.11;100.00
65190;BME280;51777;53.570;9.984;2023-10-09T01:36:53;101636.19;;;11.16;100.00
65190;BME280;51777;53.570;9.984;2023-10-09T01:39:25;101636.09;;;11.17;100.00
65190;BME280;51777;53.570;9.984;2023-10-09T01:42:05;101632.63;;;11.07;100.00
65190;BME280;51777;53.570;9.984;2023-10-09T01:44:32;101638.28;;;11.01;100.00
65190;BME280;51777;53.570;9.984;2023-10-09T01:47:04;101626.75;;;11.05;100.00
65190;BME280;51777;53.570;9.984;2023-10-09T01:49:36;101616.09;;;10.99;100.00
65190;BME280;51777;53.570;9.984;2023-10-09T01:52:03;101613.63;;;10.97;100.00
65190;BME280;51777;53.570;9.984;2023-10-09T01:54:38;101591.78;;;10.90;100.00
65190;BME280;51777;53.570;9.984;2023-10-09T01:57:04;101604.97;;;10.87;100.00
65190;BME280;51777;53.570;9.984;2023-10-09T01:59:38;101620.38;;;10.88;100.00
65190;BME280;51777;53.570;9.984;2023-10-09T02:02:08;101607.00;;;10.83;100.00
65190;BME280;51777;53.570;9.984;2023-10-09T02:04:53;101599.38;;;10.82;100.00
65190;BME280;51777;53.570;9.984;2023-10-09T02:07:20;101572.56;;;10.83;100.00
65190;BME280;51777;53.570;9.984;2023-10-09T02:09:54;101568.31;;;10.82;100.00
65190;BME280;51777;53.570;9.984;2023-10-09T02:12:19;101573.63;;;10.80;100.00
65190;BME280;51777;53.570;9.984;2023-10-09T02:14:47;101563.84;;;10.84;100.00
65190;BME280;51777;53.570;9.984;2023-10-09T02:17:12;101557.97;;;10.82;100.00
65190;BME280;51777;53.570;9.984;2023-10-09T02:19:50;101565.41;;;10.75;100.00
65190;BME280;51777;53.570;9.984;2023-10-09T02:22:17;101582.56;;;10.76;100.00
65190;BME280;51777;53.570;9.984;2023-10-09T02:24:44;101568.56;;;10.79;100.00
65190;BME280;51777;53.570;9.984;2023-10-09T02:27:23;101559.41;;;10.75;100.00
65190;BME280;51777;53.570;9.984;2023-10-09T02:30:08;101571.03;;;10.80;100.00
65190;BME280;51777;53.570;9.984;2023-10-09T02:32:52;101581.81;;;10.85;100.00
65190;BME280;51777;53.570;9.984;2023-10-09T02:35:19;101594.50;;;10.88;100.00
65190;BME280;51777;53.570;9.984;2023-10-09T02:38:01;101611.78;;;10.88;100.00
65190;BME280;51777;53.570;9.984;2023-10-09T02:40:29;101592.78;;;10.78;100.00
65190;BME280;51777;53.570;9.984;2023-10-09T02:42:59;101567.19;;;10.75;100.00
65190;BME280;51777;53.570;9.984;2023-10-09T02:45:24;101559.25;;;10.67;100.00
65190;BME280;51777;53.570;9.984;2023-10-09T02:47:50;101536.88;;;10.66;100.00
65190;BME280;51777;53.570;9.984;2023-10-09T02:50:16;101530.78;;;10.67;100.00
65190;BME280;51777;53.570;9.984;2023-10-09T02:52:49;101541.00;;;10.68;100.00
65190;BME280;51777;53.570;9.984;2023-10-09T02:55:24;101543.81;;;10.65;100.00
65190;BME280;51777;53.570;9.984;2023-10-09T02:57:55;101532.44;;;10.68;100.00
65190;BME280;51777;53.570;9.984;2023-10-09T03:00:39;101537.09;;;10.74;100.00
65190;BME280;51777;53.570;9.984;2023-10-09T03:03:05;101537.34;;;10.71;100.00
65190;BME280;51777;53.570;9.984;2023-10-09T03:05:33;101531.72;;;10.66;100.00
65190;BME280;51777;53.570;9.984;2023-10-09T03:07:59;101529.84;;;10.68;100.00
65190;BME280;51777;53.570;9.984;2023-10-09T03:10:24;101524.22;;;10.63;100.00
65190;BME280;51777;53.570;9.984;2023-10-09T03:12:50;101521.88;;;10.59;100.00
65190;BME280;51777;53.570;9.984;2023-10-09T03:15:17;101525.16;;;10.62;100.00
65190;BME280;51777;53.570;9.984;2023-10-09T03:17:44;101515.22;;;10.57;100.00
65190;BME280;51777;53.570;9.984;2023-10-09T03:20:10;101505.00;;;10.55;100.00
65190;BME280;51777;53.570;9.984;2023-10-09T03:22:40;101502.28;;;10.57;100.00
65190;BME280;51777;53.570;9.984;2023-10-09T03:25:06;101496.72;;;10.62;100.00
65190;BME280;51777;53.570;9.984;2023-10-09T03:27:42;101477.66;;;10.63;100.00
65190;BME280;51777;53.570;9.984;2023-10-09T03:30:14;101478.06;;;10.58;100.00
65190;BME280;51777;53.570;9.984;2023-10-09T03:32:50;101488.75;;;10.53;100.00
65190;BME280;51777;53.570;9.984;2023-10-09T03:35:20;101492.44;;;10.51;100.00
65190;BME280;51777;53.570;9.984;2023-10-09T03:37:59;101484.81;;;10.49;100.00
65190;BME280;51777;53.570;9.984;2023-10-09T03:40:46;101495.84;;;10.51;100.00
65190;BME280;51777;53.570;9.984;2023-10-09T03:43:15;101484.81;;;10.49;100.00
65190;BME280;51777;53.570;9.984;2023-10-09T03:45:41;101485.63;;;10.50;100.00
65190;BME280;51777;53.570;9.984;2023-10-09T03:48:10;101478.31;;;10.55;100.00
65190;BME280;51777;53.570;9.984;2023-10-09T03:50:36;101465.63;;;10.52;100.00
65190;BME280;51777;53.570;9.984;2023-10-09T03:53:04;101472.94;;;10.47;100.00
65190;BME280;51777;53.570;9.984;2023-10-09T03:55:34;101474.03;;;10.44;100.00
65190;BME280;51777;53.570;9.984;2023-10-09T03:58:00;101468.88;;;10.44;100.00
65190;BME280;51777;53.570;9.984;2023-10-09T04:00:28;101476.03;;;10.41;100.00
65190;BME280;51777;53.570;9.984;2023-10-09T04:02:58;101465.81;;;10.39;100.00
65190;BME280;51777;53.570;9.984;2023-10-09T04:05:24;101476.97;;;10.40;100.00
65190;BME280;51777;53.570;9.984;2023-10-09T04:07:50;101475.34;;;10.39;100.00
65190;BME280;51777;53.570;9.984;2023-10-09T04:10:18;101467.72;;;10.37;100.00
65190;BME280;51777;53.570;9.984;2023-10-09T04:13:09;101460.66;;;10.39;100.00
65190;BME280;51777;53.570;9.984;2023-10-09T04:15:37;101461.78;;;10.46;100.00
65190;BME280;51777;53.570;9.984;2023-10-09T04:18:02;101458.38;;;10.46;100.00
65190;BME280;51777;53.570;9.984;2023-10-09T04:20:30;101458.69;;;10.52;100.00
65190;BME280;51777;53.570;9.984;2023-10-09T04:22:59;101458.19;;;10.58;100.00
65190;BME280;51777;53.570;9.984;2023-10-09T04:25:31;101464.72;;;10.63;100.00
65190;BME280;51777;53.570;9.984;2023-10-09T04:28:15;101459.00;;;10.59;100.00
65190;BME280;51777;53.570;9.984;2023-10-09T04:30:41;101458.19;;;10.58;100.00
65190;BME280;51777;53.570;9.984;2023-10-09T04:33:15;101449.28;;;10.51;100.00
65190;BME280;51777;53.570;9.984;2023-10-09T04:36:05;101441.16;;;10.56;100.00
65190;BME280;51777;53.570;9.984;2023-10-09T04:38:46;101441.53;;;10.51;100.00
65190;BME280;51777;53.570;9.984;2023-10-09T04:41:27;101444.81;;;10.53;100.00
65190;BME280;51777;53.570;9.984;2023-10-09T04:43:53;101446.06;;;10.59;100.00
65190;BME280;51777;53.570;9.984;2023-10-09T04:46:30;101443.44;;;10.49;100.00
65190;BME280;51777;53.570;9.984;2023-10-09T04:49:09;101449.56;;;10.48;100.00
65190;BME280;51777;53.570;9.984;2023-10-09T04:51:53;101458.25;;;10.47;100.00
65190;BME280;51777;53.570;9.984;2023-10-09T04:54:45;101450.50;;;10.47;100.00
65190;BME280;51777;53.570;9.984;2023-10-09T04:57:29;101459.41;;;10.54;100.00
65190;BME280;51777;53.570;9.984;2023-10-09T04:59:54;101461.03;;;10.55;100.00
65190;BME280;51777;53.570;9.984;2023-10-09T05:02:26;101465.00;;;10.59;100.00
65190;BME280;51777;53.570;9.984;2023-10-09T05:05:01;101457.50;;;10.56;100.00
65190;BME280;51777;53.570;9.984;2023-10-09T05:07:40;101449.97;;;10.53;100.00
65190;BME280;51777;53.570;9.984;2023-10-09T05:10:20;101430.25;;;10.52;100.00
65190;BME280;51777;53.570;9.984;2023-10-09T05:12:54;101423.44;;;10.51;100.00
65190;BME280;51777;53.570;9.984;2023-10-09T05:15:23;101422.75;;;10.49;100.00
65190;BME280;51777;53.570;9.984;2023-10-09T05:17:54;101415.81;;;10.50;100.00
65190;BME280;51777;53.570;9.984;2023-10-09T05:20:23;101416.63;;;10.50;100.00
65190;BME280;51777;53.570;9.984;2023-10-09T05:22:49;101415.81;;;10.50;100.00
65190;BME280;51777;53.570;9.984;2023-10-09T05:25:27;101419.75;;;10.54;100.00
65190;BME280;51777;53.570;9.984;2023-10-09T05:28:10;101415.00;;;10.49;100.00
65190;BME280;51777;53.570;9.984;2023-10-09T05:30:55;101416.22;;;10.45;100.00
65190;BME280;51777;53.570;9.984;2023-10-09T05:33:32;101412.13;;;10.43;100.00
65190;BME280;51777;53.570;9.984;2023-10-09T05:38:26;101407.00;;;10.32;100.00
65190;BME280;51777;53.570;9.984;2023-10-09T05:40:52;101400.91;;;10.33;100.00
65190;BME280;51777;53.570;9.984;2023-10-09T05:43:19;101402.00;;;10.40;100.00
65190;BME280;51777;53.570;9.984;2023-10-09T05:46:04;101417.84;;;10.46;100.00
65190;BME280;51777;53.570;9.984;2023-10-09T05:48:40;101423.19;;;10.54;100.00
65190;BME280;51777;53.570;9.984;2023-10-09T05:51:05;101424.72;;;10.57;100.00
65190;BME280;51777;53.570;9.984;2023-10-09T05:54:00;101426.03;;;10.51;100.00
65190;BME280;51777;53.570;9.984;2023-10-09T05:56:49;101418.09;;;10.22;100.00
65190;BME280;51777;53.570;9.984;2023-10-09T05:59:32;101401.13;;;10.09;100.00
65190;BME280;51777;53.570;9.984;2023-10-09T06:02:00;101399.63;;;10.06;100.00
65190;BME280;51777;53.570;9.984;2023-10-09T06:04:44;101407.56;;;9.93;100.00
65190;BME280;51777;53.570;9.984;2023-10-09T06:07:19;101423.09;;;9.82;100.00
65190;BME280;51777;53.570;9.984;2023-10-09T06:09:50;101425.81;;;9.81;100.00
65190;BME280;51777;53.570;9.984;2023-10-09T06:12:18;101432.97;;;9.77;100.00
65190;BME280;51777;53.570;9.984;2023-10-09T06:15:04;101422.91;;;9.63;100.00
65190;BME280;51777;53.570;9.984;2023-10-09T06:17:57;101411.66;;;9.64;100.00
65190;BME280;51777;53.570;9.984;2023-10-09T06:20:42;101404.41;;;9.58;100.00
65190;BME280;51777;53.570;9.984;2023-10-09T06:23:26;101412.03;;;9.59;100.00
65190;BME280;51777;53.570;9.984;2023-10-09T06:26:12;101419.63;;;9.61;100.00
65190;BME280;51777;53.570;9.984;2023-10-09T06:28:49;101410.63;;;9.55;100.00
65190;BME280;51777;53.570;9.984;2023-10-09T06:31:35;101395.25;;;9.54;100.00
65190;BME280;51777;53.570;9.984;2023-10-09T06:34:20;101393.84;;;9.50;100.00
65190;BME280;51777;53.570;9.984;2023-10-09T06:36:50;101389.38;;;9.52;100.00
65190;BME280;51777;53.570;9.984;2023-10-09T06:39:18;101381.78;;;9.50;100.00
65190;BME280;51777;53.570;9.984;2023-10-09T06:42:03;101391.53;;;9.47;100.00
65190;BME280;51777;53.570;9.984;2023-10-09T06:44:51;101376.16;;;9.45;100.00
65190;BME280;51777;53.570;9.984;2023-10-09T06:47:17;101379.56;;;9.46;100.00
65190;BME280;51777;53.570;9.984;2023-10-09T06:49:44;101385.53;;;9.46;100.00
65190;BME280;51777;53.570;9.984;2023-10-09T06:52:29;101377.34;;;9.41;100.00
65190;BME280;51777;53.570;9.984;2023-10-09T06:55:14;101374.06;;;9.39;100.00
65190;BME280;51777;53.570;9.984;2023-10-09T06:57:57;101371.34;;;9.40;100.00
65190;BME280;51777;53.570;9.984;2023-10-09T07:00:29;101374.44;;;9.34;100.00
65190;BME280;51777;53.570;9.984;2023-10-09T07:03:13;101371.84;;;9.34;100.00
65190;BME280;51777;53.570;9.984;2023-10-09T07:05:40;101360.84;;;9.32;100.00
65190;BME280;51777;53.570;9.984;2023-10-09T07:08:24;101362.91;;;9.38;100.00
65190;BME280;51777;53.570;9.984;2023-10-09T07:11:03;101372.16;;;9.41;100.00
65190;BME280;51777;53.570;9.984;2023-10-09T07:13:49;101394.59;;;9.40;100.00
65190;BME280;51777;53.570;9.984;2023-10-09T07:16:22;101380.63;;;9.43;100.00
65190;BME280;51777;53.570;9.984;2023-10-09T07:18:55;101375.91;;;9.48;100.00
65190;BME280;51777;53.570;9.984;2023-10-09T07:21:35;101383.97;;;9.55;100.00
65190;BME280;51777;53.570;9.984;2023-10-09T07:24:00;101378.34;;;9.61;100.00
65190;BME280;51777;53.570;9.984;2023-10-09T07:26:42;101371.75;;;9.68;100.00
65190;BME280;51777;53.570;9.984;2023-10-09T07:29:13;101371.34;;;9.73;100.00
65190;BME280;51777;53.570;9.984;2023-10-09T07:31:43;101377.91;;;9.77;100.00
65190;BME280;51777;53.570;9.984;2023-10-09T07:34:11;101375.66;;;9.83;100.00
65190;BME280;51777;53.570;9.984;2023-10-09T07:36:55;101363.31;;;9.87;100.00
65190;BME280;51777;53.570;9.984;2023-10-09T07:39:31;101367.41;;;9.89;100.00
65190;BME280;51777;53.570;9.984;2023-10-09T07:42:02;101369.03;;;9.90;100.00
65190;BME280;51777;53.570;9.984;2023-10-09T07:44:43;101372.81;;;9.86;100.00
65190;BME280;51777;53.570;9.984;2023-10-09T07:47:18;101358.13;;;9.87;100.00
65190;BME280;51777;53.570;9.984;2023-10-09T07:50:02;101359.50;;;9.91;100.00
65190;BME280;51777;53.570;9.984;2023-10-09T07:52:29;101368.00;;;9.93;100.00
65190;BME280;51777;53.570;9.984;2023-10-09T07:54:54;101362.56;;;9.96;100.00
65190;BME280;51777;53.570;9.984;2023-10-09T07:57:27;101365.22;;;10.06;100.00
65190;BME280;51777;53.570;9.984;2023-10-09T07:59:54;101368.09;;;10.12;100.00
65190;BME280;51777;53.570;9.984;2023-10-09T08:02:21;101363.47;;;10.16;100.00
65190;BME280;51777;53.570;9.984;2023-10-09T08:05:00;101361.63;;;10.18;100.00
65190;BME280;51777;53.570;9.984;2023-10-09T08:07:30;101354.78;;;10.17;100.00
65190;BME280;51777;53.570;9.984;2023-10-09T08:10:06;101353.84;;;10.18;100.00
65190;BME280;51777;53.570;9.984;2023-10-09T08:12:45;101360.53;;;10.20;100.00
65190;BME280;51777;53.570;9.984;2023-10-09T08:15:14;101356.09;;;10.22;100.00
65190;BME280;51777;53.570;9.984;2023-10-09T08:17:46;101360.66;;;10.19;100.00
65190;BME280;51777;53.570;9.984;2023-10-09T08:20:32;101364.19;;;10.18;100.00
65190;BME280;51777;53.570;9.984;2023-10-09T08:23:17;101367.09;;;10.24;100.00
65190;BME280;51777;53.570;9.984;2023-10-09T08:26:04;101372.00;;;10.27;100.00
65190;BME280;51777;53.570;9.984;2023-10-09T08:28:44;101370.44;;;10.36;100.00
65190;BME280;51777;53.570;9.984;2023-10-09T08:31:13;101368.66;;;10.37;100.00
65190;BME280;51777;53.570;9.984;2023-10-09T08:34:02;101374.47;;;10.29;100.00
65190;BME280;51777;53.570;9.984;2023-10-09T08:36:29;101368.59;;;10.27;100.00
65190;BME280;51777;53.570;9.984;2023-10-09T08:39:04;101365.53;;;10.33;100.00
65190;BME280;51777;53.570;9.984;2023-10-09T08:41:53;101365.53;;;10.33;100.00
65190;BME280;51777;53.570;9.984;2023-10-09T08:44:23;101368.41;;;10.40;100.00
65190;BME280;51777;53.570;9.984;2023-10-09T08:46:51;101365.31;;;10.46;100.00
65190;BME280;51777;53.570;9.984;2023-10-09T08:49:18;101362.59;;;10.47;100.00
65190;BME280;51777;53.570;9.984;2023-10-09T08:51:46;101360.91;;;10.37;100.00
65190;BME280;51777;53.570;9.984;2023-10-09T08:54:14;101367.34;;;10.42;100.00
65190;BME280;51777;53.570;9.984;2023-10-09T08:56:41;101352.88;;;10.40;100.00
65190;BME280;51777;53.570;9.984;2023-10-09T08:59:15;101362.03;;;10.44;100.00
65190;BME280;51777;53.570;9.984;2023-10-09T09:01:49;101358.56;;;10.54;100.00
65190;BME280;51777;53.570;9.984;2023-10-09T09:07:00;101361.28;;;10.63;100.00
65190;BME280;51777;53.570;9.984;2023-10-09T09:09:27;101362.16;;;10.73;100.00
65190;BME280;51777;53.570;9.984;2023-10-09T09:11:55;101353.72;;;10.71;100.00
65190;BME280;51777;53.570;9.984;2023-10-09T09:14:35;101360.78;;;10.69;100.00
65190;BME280;51777;53.570;9.984;2023-10-09T09:17:02;101362.00;;;10.74;100.00
65190;BME280;51777;53.570;9.984;2023-10-09T09:19:33;101362.28;;;10.71;100.00
65190;BME280;51777;53.570;9.984;2023-10-09T09:22:04;101352.34;;;10.67;100.00
65190;BME280;51777;53.570;9.984;2023-10-09T09:24:40;101350.84;;;10.74;100.00
65190;BME280;51777;53.570;9.984;2023-10-09T09:27:17;101349.81;;;10.86;100.00
65190;BME280;51777;53.570;9.984;2023-10-09T09:29:46;101354.88;;;10.97;100.00
65190;BME280;51777;53.570;9.984;2023-10-09T09:32:27;101359.50;;;11.03;100.00
65190;BME280;51777;53.570;9.984;2023-10-09T09:34:55;101353.41;;;11.04;100.00
65190;BME280;51777;53.570;9.984;2023-10-09T09:37:27;101354.91;;;11.16;100.00
65190;BME280;51777;53.570;9.984;2023-10-09T09:40:02;101353.56;;;11.32;100.00
65190;BME280;51777;53.570;9.984;2023-10-09T09:42:42;101350.72;;;11.44;100.00
65190;BME280;51777;53.570;9.984;2023-10-09T09:45:11;101351.09;;;11.50;100.00
65190;BME280;51777;53.570;9.984;2023-10-09T09:47:36;101351.38;;;11.46;100.00
65190;BME280;51777;53.570;9.984;2023-10-09T09:50:05;101346.63;;;11.42;100.00
65190;BME280;51777;53.570;9.984;2023-10-09T09:52:39;101346.19;;;11.37;100.00
65190;BME280;51777;53.570;9.984;2023-10-09T09:55:06;101346.47;;;11.34;100.00
65190;BME280;51777;53.570;9.984;2023-10-09T09:57:40;101346.47;;;11.34;100.00
65190;BME280;51777;53.570;9.984;2023-10-09T10:00:09;101338.72;;;11.34;100.00
65190;BME280;51777;53.570;9.984;2023-10-09T10:02:54;101339.13;;;11.29;100.00
65190;BME280;51777;53.570;9.984;2023-10-09T10:05:24;101338.44;;;11.37;100.00
65190;BME280;51777;53.570;9.984;2023-10-09T10:07:56;101328.38;;;11.43;100.00
65190;BME280;51777;53.570;9.984;2023-10-09T10:13:03;101336.28;;;11.42;100.00
65190;BME280;51777;53.570;9.984;2023-10-09T10:15:58;101325.78;;;11.34;100.00
65190;BME280;51777;53.570;9.984;2023-10-09T10:18:24;101329.31;;;11.33;100.00
65190;BME280;51777;53.570;9.984;2023-10-09T10:21:10;101322.22;;;11.35;100.00
65190;BME280;51777;53.570;9.984;2023-10-09T10:23:43;101340.06;;;11.38;100.00
65190;BME280;51777;53.570;9.984;2023-10-09T10:26:22;101339.94;;;11.39;100.00
65190;BME280;51777;53.570;9.984;2023-10-09T10:32:02;101340.22;;;11.46;100.00
65190;BME280;51777;53.570;9.984;2023-10-09T10:37:11;101336.94;;;11.44;100.00
65190;BME280;51777;53.570;9.984;2023-10-09T10:39:52;101336.81;;;11.45;100.00
65190;BME280;51777;53.570;9.984;2023-10-09T10:42:24;101331.75;;;11.34;100.00
65190;BME280;51777;53.570;9.984;2023-10-09T10:45:02;101335.31;;;11.43;100.00
65190;BME280;51777;53.570;9.984;2023-10-09T10:47:48;101333.13;;;11.38;100.00
65190;BME280;51777;53.570;9.984;2023-10-09T10:50:17;101337.91;;;11.43;100.00
65190;BME280;51777;53.570;9.984;2023-10-09T10:53:13;101335.31;;;11.43;100.00
65190;BME280;51777;53.570;9.984;2023-10-09T10:56:10;101334.06;;;11.47;100.00
65190;BME280;51777;53.570;9.984;2023-10-09T10:58:40;101338.59;;;11.45;100.00
65190;BME280;51777;53.570;9.984;2023-10-09T11:01:19;101336.38;;;11.50;100.00
65190;BME280;51777;53.570;9.984;2023-10-09T11:03:44;101336.09;;;11.53;100.00
65190;BME280;51777;53.570;9.984;2023-10-09T11:06:31;101336.69;;;11.57;100.00
65190;BME280;51777;53.570;9.984;2023-10-09T11:09:58;101332.59;;;11.54;100.00
65190;BME280;51777;53.570;9.984;2023-10-09T11:13:19;101334.47;;;11.52;100.00
65190;BME280;51777;53.570;9.984;2023-10-09T11:16:07;101335.28;;;11.62;100.00
65190;BME280;51777;53.570;9.984;2023-10-09T11:18:49;101328.34;;;11.63;100.00
65190;BME280;51777;53.570;9.984;2023-10-09T11:21:15;101326.56;;;11.63;100.00
65190;BME280;51777;53.570;9.984;2023-10-09T11:23:41;101327.38;;;11.64;100.00
65190;BME280;51777;53.570;9.984;2023-10-09T11:26:27;101311.69;;;11.65;100.00
65190;BME280;51777;53.570;9.984;2023-10-09T11:29:07;101308.97;;;11.76;100.00
65190;BME280;51777;53.570;9.984;2023-10-09T11:32:04;101320.44;;;11.84;100.00
65190;BME280;51777;53.570;9.984;2023-10-09T11:34:31;101324.94;;;11.91;100.00
65190;BME280;51777;53.570;9.984;2023-10-09T11:37:02;101332.16;;;11.88;100.00
65190;BME280;51777;53.570;9.984;2023-10-09T11:39:30;101321.13;;;11.86;100.00
65190;BME280;51777;53.570;9.984;2023-10-09T11:42:07;101318.94;;;11.91;100.00
65190;BME280;51777;53.570;9.984;2023-10-09T11:44:38;101327.38;;;11.93;100.00
65190;BME280;51777;53.570;9.984;2023-10-09T11:47:05;101331.19;;;11.89;100.00
65190;BME280;51777;53.570;9.984;2023-10-09T11:49:52;101327.25;;;11.94;100.00
65190;BME280;51777;53.570;9.984;2023-10-09T11:52:30;101323.00;;;12.03;100.00
65190;BME280;51777;53.570;9.984;2023-10-09T11:55:12;101326.50;;;12.12;100.00
65190;BME280;51777;53.570;9.984;2023-10-09T11:57:41;101324.34;;;12.07;100.00
65190;BME280;51777;53.570;9.984;2023-10-09T12:00:07;101321.63;;;12.09;100.00
65190;BME280;51777;53.570;9.984;2023-10-09T12:02:36;101323.69;;;12.05;100.00
65190;BME280;51777;53.570;9.984;2023-10-09T12:05:10;101316.97;;;12.02;100.00
65190;BME280;51777;53.570;9.984;2023-10-09T12:07:45;101318.09;;;12.00;100.00
65190;BME280;51777;53.570;9.984;2023-10-09T12:10:12;101310.94;;;12.12;100.00
65190;BME280;51777;53.570;9.984;2023-10-09T12:12:39;101311.75;;;12.22;100.00
65190;BME280;51777;53.570;9.984;2023-10-09T12:15:06;101317.50;;;12.16;100.00
65190;BME280;51777;53.570;9.984;2023-10-09T12:17:35;101309.16;;;12.22;100.00
65190;BME280;51777;53.570;9.984;2023-10-09T12:20:00;101300.94;;;12.26;100.00
65190;BME280;51777;53.570;9.984;2023-10-09T12:22:30;101302.16;;;12.32;100.00
65190;BME280;51777;53.570;9.984;2023-10-09T12:24:56;101303.94;;;12.31;100.00
65190;BME280;51777;53.570;9.984;2023-10-09T12:27:22;101305.56;;;12.32;100.00
65190;BME280;51777;53.570;9.984;2023-10-09T12:29:48;101306.19;;;12.44;100.00
65190;BME280;51777;53.570;9.984;2023-10-09T12:32:13;101314.66;;;12.46;100.00
65190;BME280;51777;53.570;9.984;2023-10-09T12:34:39;101309.16;;;12.49;100.00
65190;BME280;51777;53.570;9.984;2023-10-09T12:37:04;101313.03;;;12.45;100.00
65190;BME280;51777;53.570;9.984;2023-10-09T12:39:40;101311.63;;;12.51;100.00
65190;BME280;51777;53.570;9.984;2023-10-09T12:42:09;101325.94;;;12.55;100.00
65190;BME280;51777;53.570;9.984;2023-10-09T12:44:37;101317.22;;;12.56;100.00
65190;BME280;51777;53.570;9.984;2023-10-09T12:47:06;101317.22;;;12.56;100.00
65190;BME280;51777;53.570;9.984;2023-10-09T12:49:31;101315.94;;;12.60;100.00
65190;BME280;51777;53.570;9.984;2023-10-09T12:51:57;101324.41;;;12.62;100.00
65190;BME280;51777;53.570;9.984;2023-10-09T12:54:27;101323.84;;;12.68;100.00
65190;BME280;51777;53.570;9.984;2023-10-09T12:56:54;101317.97;;;12.66;100.00
65190;BME280;51777;53.570;9.984;2023-10-09T12:59:19;101321.25;;;12.68;100.00
65190;BME280;51777;53.570;9.984;2023-10-09T13:01:47;101311.75;;;12.77;100.00
65190;BME280;51777;53.570;9.984;2023-10-09T13:04:18;101312.00;;;12.83;100.00
65190;BME280;51777;53.570;9.984;2023-10-09T13:06:48;101306.75;;;12.93;100.00
65190;BME280;51777;53.570;9.984;2023-10-09T13:09:17;101310.81;;;12.96;100.00
65190;BME280;51777;53.570;9.984;2023-10-09T13:12:08;101312.75;;;12.93;100.00
65190;BME280;51777;53.570;9.984;2023-10-09T13:14:34;101309.19;;;12.94;100.00
65190;BME280;51777;53.570;9.984;2023-10-09T13:17:01;101314.47;;;13.03;100.00
65190;BME280;51777;53.570;9.984;2023-10-09T13:19:33;101309.81;;;13.06;100.00
65190;BME280;51777;53.570;9.984;2023-10-09T13:21:59;101313.56;;;13.12;100.00
65190;BME280;51777;53.570;9.984;2023-10-09T13:24:36;101308.78;;;13.17;100.00
65190;BME280;51777;53.570;9.984;2023-10-09T13:27:04;101306.25;;;13.25;100.00
65190;BME280;51777;53.570;9.984;2023-10-09T13:29:30;101305.69;;;13.31;100.00